Time;durP1;ratioP1;P1;durP2;ratioP2;P2;SDS_P1;SDS_P2;PMS_P1;PMS_P2;Temp;Humidity;BMP_temperature;BMP_pressure;BME280_temperature;BME280_humidity;BME280_pressure;Samples;Min_cycle;Max_cycle;Signal;HPM_P1;HPM_P2
2021/11/25 00:00:33;;;;;;;27.02;15.25;;;;;;;3.88;88.14;98679.84;4972984;28;20042;-69
2021/11/25 00:03:17;;;;;;;31.05;16.40;;;;;;;3.86;88.05;98680.91;4972807;28;20062;-69
2021/11/25 00:06:01;;;;;;;27.45;15.93;;;;;;;3.85;88.29;98669.81;4959246;28;20058;-69
2021/11/25 00:08:45;;;;;;;32.95;16.63;;;;;;;3.91;87.64;98661.75;4973008;28;20109;-70
2021/11/25 00:11:29;;;;;;;28.88;15.48;;;;;;;3.91;87.80;98661.75;4974058;28;20125;-69
2021/11/25 00:14:13;;;;;;;32.58;16.20;;;;;;;3.91;88.00;98654.06;4972786;28;20138;-69
2021/11/25 00:16:57;;;;;;;;;;;;;;;3.90;87.89;98655.00;4959813;28;20664;-69
2021/11/25 00:19:41;;;;;;;29.15;15.05;;;;;;;3.93;88.01;98646.25;4973003;28;20382;-70
2021/11/25 00:22:25;;;;;;;28.17;15.48;;;;;;;3.95;87.72;98639.31;4972980;28;20054;-69
2021/11/25 00:25:10;;;;;;;28.52;15.80;;;;;;;3.88;87.83;98638.88;4974019;28;20050;-69
2021/11/25 00:27:54;;;;;;;29.15;16.60;;;;;;;3.92;87.87;98630.09;4972885;28;20126;-69
2021/11/25 00:30:37;;;;;;;29.42;16.02;;;;;;;3.95;87.61;98623.94;4959308;28;20097;-70
2021/11/25 00:33:21;;;;;;;28.30;16.17;;;;;;;3.92;88.06;98621.56;4959564;28;20057;-69
2021/11/25 00:36:06;;;;;;;32.33;16.10;;;;;;;3.95;88.01;98624.75;4959230;28;20073;-69
2021/11/25 00:38:50;;;;;;;28.67;15.30;;;;;;;3.89;88.25;98630.31;4972756;28;20416;-69
2021/11/25 00:41:34;;;;;;;31.15;15.93;;;;;;;3.87;88.22;98623.66;4958852;28;20054;-69
2021/11/25 00:44:18;;;;;;;29.17;16.63;;;;;;;3.86;88.46;98624.56;4972865;28;20109;-69
2021/11/25 00:47:01;;;;;;;26.38;14.93;;;;;;;3.91;88.74;98630.19;4973667;28;20089;-69
2021/11/25 00:49:45;;;;;;;28.40;15.95;;;;;;;3.91;88.67;98628.47;4972517;28;20100;-69
2021/11/25 00:52:29;;;;;;;29.92;16.10;;;;;;;3.88;88.42;98632.97;4973683;28;20529;-70
2021/11/25 00:55:13;;;;;;;34.25;15.77;;;;;;;3.85;88.65;98628.84;4973510;28;20057;-69
2021/11/25 00:57:57;;;;;;;28.23;15.65;;;;;;;3.89;88.56;98629.47;4959069;28;20512;-69
2021/11/25 01:00:41;;;;;;;32.85;16.83;;;;;;;3.88;89.03;98630.41;4958807;28;20073;-70
2021/11/25 01:03:25;;;;;;;28.80;15.95;;;;;;;3.89;88.33;98634.59;4972566;28;20053;-69
2021/11/25 01:06:09;;;;;;;29.92;16.67;;;;;;;3.91;88.40;98633.56;4972825;28;20117;-69
2021/11/25 01:08:53;;;;;;;27.58;16.10;;;;;;;3.92;88.30;98630.09;4973868;28;20356;-69
2021/11/25 01:11:37;;;;;;;;;;;;;;;3.96;88.33;98630.72;4959248;28;20441;-70
2021/11/25 01:14:21;;;;;;;32.80;17.03;;;;;;;3.98;87.85;98626.28;4973376;28;19921;-69
2021/11/25 01:17:06;;;;;;;27.65;15.65;;;;;;;3.97;88.13;98628.03;4962330;28;20404;-69
2021/11/25 01:19:50;;;;;;;30.10;15.65;;;;;;;3.96;87.83;98630.72;4976992;28;20551;-69
2021/11/25 01:22:34;;;;;;;29.92;15.90;;;;;;;3.95;87.80;98623.94;4976887;28;20451;-69
2021/11/25 01:25:18;;;;;;;27.80;15.60;;;;;;;3.94;87.47;98622.31;4975968;28;20491;-69
2021/11/25 01:28:03;;;;;;;29.95;16.38;;;;;;;3.95;87.27;98636.75;4976203;28;20140;-69
2021/11/25 01:30:50;;;;;;;26.95;14.88;;;;;;;4.04;87.26;98631.00;4975703;28;20054;-69
2021/11/25 01:33:34;;;;;;;27.17;16.20;;;;;;;4.01;87.10;98634.59;4975640;28;20101;-70
2021/11/25 01:36:18;;;;;;;28.80;16.02;;;;;;;4.00;87.22;98645.75;4962371;28;20128;-70
2021/11/25 01:39:03;;;;;;;30.35;16.27;;;;;;;4.06;87.24;98641.97;4975970;28;20566;-70
2021/11/25 01:41:48;;;;;;;29.48;15.50;;;;;;;4.07;87.04;98644.41;4961731;28;20198;-70
2021/11/25 01:44:32;;;;;;;27.23;15.18;;;;;;;4.07;86.78;98635.91;4976784;28;20073;-70
2021/11/25 01:47:16;;;;;;;30.60;15.95;;;;;;;4.06;86.66;98642.75;4975454;28;20054;-70
2021/11/25 01:49:59;;;;;;;32.08;17.67;;;;;;;4.06;86.40;98631.72;4962160;28;20057;-70
2021/11/25 01:52:44;;;;;;;;;;;;;;;4.07;86.38;98634.16;4976020;28;20057;-70
2021/11/25 01:55:28;;;;;;;30.05;15.65;;;;;;;4.07;86.56;98628.22;4976408;28;19942;-70
2021/11/25 01:58:12;;;;;;;28.23;15.43;;;;;;;4.09;86.40;98623.81;4961981;28;20100;-70
2021/11/25 02:00:58;;;;;;;28.80;15.20;;;;;;;4.13;86.29;98617.53;4975004;28;20049;-70
2021/11/25 02:03:42;;;;;;;28.60;15.23;;;;;;;4.17;85.78;98613.88;4975382;28;20560;-69
2021/11/25 02:06:27;;;;;;;30.13;15.75;;;;;;;4.16;85.79;98613.03;4975069;28;20050;-70
2021/11/25 02:09:11;;;;;;;28.42;15.63;;;;;;;4.17;86.18;98601.06;4975240;28;20049;-70
2021/11/25 02:11:55;;;;;;;30.60;16.20;;;;;;;4.19;86.00;98601.75;4975344;28;20062;-70
2021/11/25 02:14:40;;;;;;;33.38;16.25;;;;;;;4.19;85.95;98601.75;4961654;28;20049;-70
2021/11/25 02:17:24;;;;;;;27.88;16.05;;;;;;;4.17;85.92;98599.31;4961558;28;20110;-70
2021/11/25 02:20:09;;;;;;;31.33;16.23;;;;;;;4.11;86.27;98588.66;4975015;28;20057;-70
2021/11/25 02:22:53;;;;;;;28.42;15.65;;;;;;;4.17;86.06;98588.25;4974816;28;20134;-69
2021/11/25 02:25:37;;;;;;;;;;;;;;;4.18;86.34;98577.06;4976689;28;20381;-70
2021/11/25 02:28:24;;;;;;;28.37;15.17;;;;;;;4.19;86.30;98578.72;4973965;28;19964;-70
2021/11/25 02:31:08;;;;;;;27.83;15.32;;;;;;;4.13;86.32;98577.41;4974605;28;20085;-70
2021/11/25 02:33:52;;;;;;;29.10;15.82;;;;;;;4.12;86.58;98569.81;4974555;28;20053;-70
2021/11/25 02:36:36;;;;;;;30.58;16.05;;;;;;;4.10;86.91;98557.13;4975544;28;20510;-70
2021/11/25 02:39:20;;;;;;;31.08;15.70;;;;;;;4.09;86.96;98565.75;4974694;28;20101;-70
2021/11/25 02:42:05;;;;;;;29.73;15.20;;;;;;;4.12;87.60;98559.56;4974232;28;20041;-70
2021/11/25 02:44:49;;;;;;;28.30;14.52;;;;;;;4.05;87.99;98571.19;4961265;28;20054;-70
2021/11/25 02:47:33;;;;;;;30.25;15.65;;;;;;;4.01;88.21;98565.44;4974583;28;20093;-70
2021/11/25 02:50:18;;;;;;;33.13;17.25;;;;;;;4.02;88.16;98556.84;4960634;28;20122;-70
2021/11/25 02:53:02;;;;;;;30.60;17.10;;;;;;;4.02;88.44;98561.94;4974469;28;20050;-70
2021/11/25 02:55:46;;;;;;;30.85;16.35;;;;;;;4.05;88.19;98548.13;4975203;28;20417;-70
2021/11/25 02:58:31;;;;;;;30.88;15.38;;;;;;;4.03;88.49;98549.94;4960750;28;20073;-70
2021/11/25 03:01:17;;;;;;;31.70;16.08;;;;;;;4.03;88.36;98555.06;4974143;28;20050;-70
2021/11/25 03:04:02;;;;;;;29.83;15.60;;;;;;;3.96;88.66;98543.63;4975169;28;20061;-69
2021/11/25 03:06:46;;;;;;;29.67;16.10;;;;;;;3.94;88.88;98551.41;4975250;28;20097;-68
2021/11/25 03:09:30;;;;;;;31.65;16.35;;;;;;;3.95;89.25;98544.56;4960495;28;20077;-69
2021/11/25 03:12:14;;;;;;;34.63;17.52;;;;;;;3.99;89.16;98543.41;4973989;28;20498;-70
2021/11/25 03:14:58;;;;;;;35.92;17.55;;;;;;;4.05;88.33;98540.44;4974796;28;20061;-70
2021/11/25 03:17:41;;;;;;;33.10;16.52;;;;;;;4.00;88.36;98533.06;4975229;28;20507;-69
2021/11/25 03:20:25;;;;;;;28.50;15.80;;;;;;;4.00;88.48;98530.50;4973776;28;20112;-70
2021/11/25 03:23:11;;;;;;;30.77;16.27;;;;;;;4.02;88.67;98538.91;4973797;28;20057;-68
2021/11/25 03:25:56;;;;;;;31.38;15.40;;;;;;;4.02;88.41;98538.06;4973574;28;20065;-70
2021/11/25 03:28:46;;;;;;;36.15;17.23;;;;;;;4.03;88.25;98532.84;4973716;28;20534;-70
2021/11/25 03:31:32;;;;;;;32.15;17.02;;;;;;;4.03;88.23;98537.97;4960692;28;20487;-70
2021/11/25 03:34:16;;;;;;;33.42;17.10;;;;;;;4.02;88.34;98531.22;4973448;28;20130;-70
2021/11/25 03:37:00;;;;;;;32.13;17.00;;;;;;;4.01;88.49;98521.91;4960181;28;20045;-70
2021/11/25 03:39:44;;;;;;;35.60;18.00;;;;;;;3.98;88.51;98528.97;4973637;28;20089;-71
2021/11/25 03:42:28;;;;;;;31.98;16.85;;;;;;;4.03;88.49;98540.53;4959514;28;20058;-70
2021/11/25 03:45:12;;;;;;;31.70;15.93;;;;;;;4.03;88.38;98535.41;4973499;28;20049;-70
2021/11/25 03:47:56;;;;;;;30.55;16.77;;;;;;;4.04;88.15;98536.25;4973403;28;20053;-70
2021/11/25 03:50:40;;;;;;;30.95;16.80;;;;;;;4.03;88.53;98539.69;4973581;28;20108;-69
2021/11/25 03:53:24;;;;;;;30.63;17.92;;;;;;;3.98;88.45;98532.34;4973309;28;20178;-70
2021/11/25 03:56:08;;;;;;;32.17;16.85;;;;;;;3.95;88.46;98531.75;4959449;28;20531;-70
2021/11/25 03:58:52;;;;;;;;;;;;;;;3.96;88.21;98533.41;4960008;28;20559;-70
2021/11/25 04:01:36;;;;;;;30.42;16.13;;;;;;;3.91;88.44;98531.16;4959377;28;19969;-69
2021/11/25 04:04:20;;;;;;;30.90;17.17;;;;;;;3.98;88.41;98536.66;4974270;28;20050;-69
2021/11/25 04:07:04;;;;;;;33.80;16.70;;;;;;;3.97;88.30;98540.94;4959338;28;20137;-70
2021/11/25 04:09:48;;;;;;;32.33;17.42;;;;;;;3.97;87.97;98535.81;4973262;28;20050;-70
2021/11/25 04:12:32;;;;;;;33.38;17.75;;;;;;;4.03;88.24;98526.91;4974026;28;20094;-70
2021/11/25 04:15:17;;;;;;;31.52;16.98;;;;;;;4.07;87.83;98528.34;4959391;28;20430;-70
2021/11/25 04:18:01;;;;;;;33.75;17.20;;;;;;;4.01;87.90;98536.44;4973127;28;20057;-70
2021/11/25 04:20:45;;;;;;;33.67;16.33;;;;;;;4.08;87.91;98527.41;5000302;23;20128;-67
2021/11/25 04:23:29;;;;;;;34.00;16.67;;;;;;;4.02;88.00;98530.38;4992506;28;20061;-67
2021/11/25 04:26:13;;;;;;;31.42;17.92;;;;;;;4.04;87.56;98519.13;4992148;28;20054;-67
2021/11/25 04:28:57;;;;;;;34.10;16.98;;;;;;;4.04;87.59;98520.88;4992615;28;20530;-67
2021/11/25 04:37:48;;;;;;;30.63;15.52;;;;;;;4.06;88.14;98509.56;4992472;28;20049;-67
2021/11/25 04:40:39;;;;;;;37.00;17.38;;;;;;;4.05;87.72;98519.94;4992019;28;20054;-67
2021/11/25 04:43:24;;;;;;;31.48;17.15;;;;;;;4.11;87.63;98516.94;4992286;28;20157;-67
2021/11/25 04:46:08;;;;;;;34.42;16.95;;;;;;;4.07;87.86;98512.97;4978284;28;20187;-67
2021/11/25 04:48:52;;;;;;;35.45;17.65;;;;;;;4.10;87.72;98512.75;4978465;28;20049;-67
2021/11/25 04:51:36;;;;;;;33.80;17.92;;;;;;;4.10;87.67;98505.06;4996243;28;20141;-67
2021/11/25 04:54:20;;;;;;;33.38;17.02;;;;;;;4.09;88.15;98509.38;4982193;28;20053;-67
2021/11/25 04:57:05;;;;;;;35.65;17.90;;;;;;;4.12;88.05;98516.84;4997066;28;20056;-67
2021/11/25 04:59:50;;;;;;;32.88;17.60;;;;;;;4.13;87.79;98512.53;4995852;28;20108;-67
2021/11/25 05:02:34;;;;;;;35.05;17.05;;;;;;;4.14;87.77;98516.72;4995727;28;20149;-67
2021/11/25 05:05:19;;;;;;;37.10;18.35;;;;;;;4.11;87.80;98511.81;4982199;28;20065;-67
2021/11/25 05:08:03;;;;;;;;;;;;;;;4.12;88.09;98518.56;4982333;28;20057;-67
2021/11/25 05:10:46;;;;;;;30.20;15.67;;;;;;;4.14;87.38;98516.72;4995611;28;19964;-67
2021/11/25 05:13:30;;;;;;;30.23;16.95;;;;;;;4.16;87.38;98514.88;4981771;28;20372;-67
2021/11/25 05:16:14;;;;;;;36.88;17.58;;;;;;;4.20;87.31;98518.84;4995676;28;20088;-67
2021/11/25 05:18:59;;;;;;;32.08;17.40;;;;;;;4.20;87.11;98517.13;4981585;28;20418;-67
2021/11/25 05:21:43;;;;;;;32.22;16.52;;;;;;;4.19;87.07;98510.38;4996586;28;20054;-67
2021/11/25 05:24:27;;;;;;;35.22;17.33;;;;;;;4.08;88.18;98512.03;4995372;28;20053;-67
2021/11/25 05:27:11;;;;;;;35.03;17.27;;;;;;;4.14;87.70;98504.75;4981864;28;20049;-67
2021/11/25 05:29:56;;;;;;;34.33;17.00;;;;;;;4.12;88.26;98506.59;4995600;28;20407;-67
2021/11/25 05:32:40;;;;;;;36.90;18.20;;;;;;;4.08;88.10;98504.34;4995268;28;20050;-67
2021/11/25 05:35:24;;;;;;;32.10;17.58;;;;;;;4.12;88.56;98498.91;4996197;28;20098;-67
2021/11/25 05:38:09;;;;;;;30.60;17.15;;;;;;;4.09;88.36;98501.69;4995471;28;20056;-67
2021/11/25 05:40:53;;;;;;;37.83;17.98;;;;;;;4.10;88.93;98505.06;4994994;28;20045;-67
2021/11/25 05:43:37;;;;;;;40.00;18.33;;;;;;;4.14;88.68;98501.34;4995205;28;20069;-67
2021/11/25 05:46:21;;;;;;;39.08;17.80;;;;;;;4.13;88.62;98499.72;4996225;28;20135;-67
2021/11/25 05:49:05;;;;;;;33.25;16.90;;;;;;;4.16;88.47;98500.31;4994870;28;20060;-67
2021/11/25 05:51:49;;;;;;;35.45;18.23;;;;;;;4.11;88.76;98499.00;4995234;28;20050;-67
2021/11/25 05:54:33;;;;;;;36.53;18.10;;;;;;;4.18;87.99;98503.59;4995058;28;20467;-67
2021/11/25 05:57:17;;;;;;;38.25;17.83;;;;;;;4.13;88.31;98507.41;4994914;28;20053;-67
2021/11/25 06:00:01;;;;;;;36.53;18.27;;;;;;;4.16;88.25;98512.34;4994781;28;20044;-67
2021/11/25 06:02:46;;;;;;;36.10;18.02;;;;;;;4.11;88.34;98516.94;4994958;28;20049;-67
2021/11/25 06:05:30;;;;;;;34.95;17.77;;;;;;;4.14;88.45;98509.88;4994544;28;20076;-67
2021/11/25 06:08:14;;;;;;;35.97;18.48;;;;;;;4.13;88.29;98510.78;4994491;28;20100;-67
2021/11/25 06:11:02;;;;;;;32.05;17.17;;;;;;;4.14;88.56;98506.47;4994415;28;20077;-67
2021/11/25 06:13:46;;;;;;;35.65;18.67;;;;;;;4.09;88.76;98506.00;4994678;28;20459;-67
2021/11/25 06:16:30;;;;;;;32.33;17.63;;;;;;;4.21;88.08;98507.69;4994758;28;20049;-66
2021/11/25 06:19:14;;;;;;;38.05;17.80;;;;;;;4.24;87.72;98502.34;4994386;28;20053;-67
2021/11/25 06:21:58;;;;;;;37.30;17.30;;;;;;;4.24;87.52;98497.22;4994493;28;20072;-67
2021/11/25 06:24:42;;;;;;;36.90;18.10;;;;;;;4.16;87.65;98494.41;4994539;28;20439;-67
2021/11/25 06:27:26;;;;;;;34.72;18.35;;;;;;;4.12;87.90;98486.09;4994668;28;20053;-67
2021/11/25 06:30:12;;;;;;;34.35;17.48;;;;;;;4.13;88.34;98492.03;4995210;28;20101;-67
2021/11/25 06:32:56;;;;;;;36.65;18.80;;;;;;;4.13;88.00;98497.16;4994213;28;20132;-67
2021/11/25 06:35:40;;;;;;;37.58;19.15;;;;;;;4.15;88.02;98498.69;4994493;28;20050;-67
2021/11/25 06:38:24;;;;;;;37.25;18.88;;;;;;;4.15;88.21;98503.00;4993959;28;20053;-67
2021/11/25 06:41:07;;;;;;;36.65;19.52;;;;;;;4.20;87.74;98500.94;4995003;28;20053;-67
2021/11/25 06:43:51;;;;;;;39.38;19.10;;;;;;;4.21;87.74;98503.38;4993963;28;20056;-67
2021/11/25 06:46:35;;;;;;;35.45;19.10;;;;;;;4.20;87.74;98511.19;4994333;28;20363;-67
2021/11/25 06:49:19;;;;;;;36.42;18.83;;;;;;;4.24;87.44;98515.16;4993897;28;20053;-67
2021/11/25 06:52:03;;;;;;;39.65;18.88;;;;;;;4.21;87.27;98517.94;4993675;28;20048;-66
2021/11/25 06:54:48;;;;;;;38.83;19.13;;;;;;;4.23;87.27;98516.91;4994658;28;20046;-67
2021/11/25 06:57:31;;;;;;;38.08;19.02;;;;;;;4.26;86.87;98521.00;4993862;28;20057;-67
2021/11/25 07:00:16;;;;;;;;;;;;;;;4.30;86.35;98528.38;4995221;28;20490;-67
2021/11/25 07:03:01;;;;;;;36.88;18.08;;;;;;;4.30;86.46;98541.19;4979931;28;19923;-66
2021/11/25 07:05:46;;;;;;;34.80;17.90;;;;;;;4.31;86.45;98547.09;4979967;28;20056;-67
2021/11/25 07:08:30;;;;;;;39.58;19.13;;;;;;;4.31;85.78;98541.97;4979926;28;20073;-67
2021/11/25 07:11:14;;;;;;;37.70;19.05;;;;;;;4.32;85.67;98536.75;4993472;28;20048;-67
2021/11/25 07:13:58;;;;;;;37.95;18.45;;;;;;;4.34;85.68;98526.38;4979455;28;20176;-67
2021/11/25 07:16:42;;;;;;;38.00;19.15;;;;;;;4.36;85.10;98519.44;4979538;28;20108;-67
2021/11/25 07:19:27;;;;;;;34.03;18.73;;;;;;;4.38;85.00;98517.56;4993211;28;20124;-68
2021/11/25 07:22:11;;;;;;;39.80;18.80;;;;;;;4.43;85.15;98528.28;4993392;28;20085;-67
2021/11/25 07:24:56;;;;;;;41.20;20.10;;;;;;;4.45;84.88;98518.78;4979541;28;20442;-67
2021/11/25 07:27:41;;;;;;;39.58;20.20;;;;;;;4.47;84.36;98524.59;4979424;28;20052;-67
2021/11/25 07:30:25;;;;;;;43.08;23.77;;;;;;;4.49;84.15;98517.63;4993187;28;20116;-67
2021/11/25 07:33:09;;;;;;;43.10;21.98;;;;;;;4.51;83.93;98515.75;4993186;28;20053;-67
2021/11/25 07:35:53;;;;;;;45.83;21.02;;;;;;;4.51;83.98;98515.75;4993964;28;20053;-67
2021/11/25 07:38:37;;;;;;;;;;;;;;;4.52;84.34;98518.22;4993495;28;20538;-67
2021/11/25 07:41:21;;;;;;;38.00;19.63;;;;;;;4.56;84.14;98523.94;4994096;28;19921;-67
2021/11/25 07:44:06;;;;;;;39.58;19.15;;;;;;;4.60;83.78;98535.59;4978947;28;20538;-67
2021/11/25 07:46:50;;;;;;;42.05;20.30;;;;;;;4.64;83.62;98519.06;4992933;28;20124;-67
2021/11/25 07:49:34;;;;;;;42.10;21.13;;;;;;;4.67;83.35;98518.84;4992630;28;20053;-67
2021/11/25 07:52:18;;;;;;;45.33;21.55;;;;;;;4.73;83.03;98520.97;4993880;28;20038;-67
2021/11/25 07:55:03;;;;;;;40.58;21.17;;;;;;;4.74;82.73;98527.72;4992820;28;20093;-67
2021/11/25 07:57:48;;;;;;;43.33;20.95;;;;;;;4.74;82.68;98522.59;4992743;28;20472;-67
2021/11/25 08:00:33;;;;;;;39.67;20.25;;;;;;;4.68;82.36;98528.19;4979139;28;20125;-67
2021/11/25 08:03:17;;;;;;;40.08;21.38;;;;;;;4.70;81.41;98542.50;4993923;28;20595;-67
2021/11/25 08:06:01;;;;;;;43.20;20.45;;;;;;;4.69;81.72;98535.75;4993711;28;20053;-67
2021/11/25 08:08:46;;;;;;;;;;;;;;;4.70;81.16;98546.81;4979332;28;20100;-67
2021/11/25 08:11:30;;;;;;;39.90;20.88;;;;;;;4.73;81.32;98536.34;4993408;28;20001;-67
2021/11/25 08:14:14;;;;;;;;;;;;;;;4.78;81.10;98536.84;4994203;28;20052;-67
2021/11/25 08:16:59;;;;;;;37.35;20.17;;;;;;;4.77;81.15;98540.34;4992322;28;19924;-67
2021/11/25 08:19:43;;;;;;;39.25;20.38;;;;;;;4.82;79.78;98545.94;4992026;28;20635;-67
2021/11/25 08:22:27;;;;;;;40.45;20.60;;;;;;;4.81;79.94;98541.75;4992506;28;20515;-67
2021/11/25 08:25:11;;;;;;;34.85;18.63;;;;;;;4.64;78.92;98548.09;4993036;28;20085;-67
2021/11/25 08:27:56;;;;;;;39.28;20.45;;;;;;;4.78;78.63;98541.97;4992278;28;20577;-67
2021/11/25 08:30:40;;;;;;;36.88;19.27;;;;;;;4.86;78.20;98525.09;4992216;28;20419;-67
2021/11/25 08:33:25;;;;;;;37.83;19.98;;;;;;;4.91;78.04;98514.50;4992425;28;20452;-67
2021/11/25 08:36:10;;;;;;;36.53;19.60;;;;;;;4.93;77.87;98516.81;4992347;28;20049;-67
2021/11/25 08:38:53;;;;;;;34.45;19.90;;;;;;;4.99;77.22;98524.09;4992100;28;20101;-67
2021/11/25 08:41:37;;;;;;;37.65;19.00;;;;;;;4.99;77.15;98536.91;4993066;28;20575;-67
2021/11/25 08:44:21;;;;;;;34.10;17.98;;;;;;;4.95;77.66;98530.34;4978554;28;20069;-67
2021/11/25 08:47:05;;;;;;;35.08;19.13;;;;;;;4.89;77.30;98524.84;4978793;28;20193;-67
2021/11/25 08:49:51;;;;;;;33.03;18.35;;;;;;;4.99;77.01;98525.81;4992973;28;20554;-67
2021/11/25 08:52:35;;;;;;;37.95;19.38;;;;;;;5.01;77.28;98532.47;4992240;28;20053;-67
2021/11/25 08:55:20;;;;;;;35.50;19.30;;;;;;;5.07;76.68;98537.16;4993045;28;20116;-67
2021/11/25 08:58:05;;;;;;;34.20;19.52;;;;;;;5.12;75.86;98537.63;4978722;28;20138;-67
2021/11/25 09:00:49;;;;;;;34.50;18.25;;;;;;;5.21;75.72;98536.13;4991776;28;20415;-68
2021/11/25 09:03:33;;;;;;;38.75;19.60;;;;;;;5.18;76.03;98539.75;4992126;28;20519;-67
2021/11/25 09:06:17;;;;;;;37.60;18.65;;;;;;;5.15;74.77;98542.53;4991833;28;20099;-67
2021/11/25 09:09:03;;;;;;;32.72;18.95;;;;;;;5.13;75.31;98534.13;4991972;28;20072;-67
2021/11/25 09:11:47;;;;;;;32.00;17.02;;;;;;;5.20;74.49;98531.94;4991856;28;20125;-67
2021/11/25 09:14:31;;;;;;;34.53;18.45;;;;;;;5.18;74.07;98533.78;4991779;28;20085;-67
2021/11/25 09:17:15;;;;;;;35.63;19.60;;;;;;;5.21;73.91;98526.69;4991750;28;20053;-69
2021/11/25 09:19:59;;;;;;;33.60;19.73;;;;;;;5.22;73.35;98520.63;4977886;28;20073;-67
2021/11/25 09:22:43;;;;;;;30.75;17.40;;;;;;;5.18;73.69;98528.66;4992701;28;20061;-67
2021/11/25 09:25:28;;;;;;;34.88;18.88;;;;;;;5.35;73.82;98530.81;4991738;28;20053;-67
2021/11/25 09:28:18;;;;;;;32.17;18.38;;;;;;;5.29;73.63;98537.22;4992926;28;20138;-67
2021/11/25 09:31:02;;;;;;;32.63;18.75;;;;;;;5.47;73.57;98540.13;4991603;28;20407;-67
2021/11/25 09:33:47;;;;;;;36.47;18.52;;;;;;;5.55;72.25;98535.25;4991868;28;20177;-67
2021/11/25 09:36:32;;;;;;;33.97;18.70;;;;;;;5.57;71.37;98530.81;4994157;28;20061;-67
2021/11/25 09:39:16;;;;;;;33.58;18.88;;;;;;;5.49;71.50;98517.72;4995184;28;20049;-67
2021/11/25 09:42:00;;;;;;;31.85;17.73;;;;;;;5.44;72.01;98515.50;4981716;28;20049;-67
2021/11/25 09:44:44;;;;;;;34.85;19.52;;;;;;;5.62;71.67;98515.84;4995039;28;20490;-67
2021/11/25 09:47:28;;;;;;;30.45;18.08;;;;;;;5.65;71.78;98516.44;4996450;28;20049;-67
2021/11/25 09:50:12;;;;;;;37.40;20.27;;;;;;;5.82;71.25;98516.00;4995987;28;20092;-67
2021/11/25 09:53:00;;;;;;;33.42;19.65;;;;;;;5.92;70.13;98522.06;4996475;28;20092;-68
2021/11/25 09:55:48;;;;;;;32.13;18.10;;;;;;;5.92;70.20;98521.25;4994760;28;20126;-67
2021/11/25 09:58:33;;;;;;;39.47;19.58;;;;;;;5.88;70.17;98530.97;4994738;28;20562;-67
2021/11/25 10:01:22;;;;;;;36.45;19.83;;;;;;;5.88;70.14;98530.13;4995509;28;20045;-67
2021/11/25 10:04:06;;;;;;;33.42;18.95;;;;;;;5.88;69.75;98523.25;4980918;28;20414;-67
2021/11/25 10:06:51;;;;;;;36.13;20.63;;;;;;;5.99;69.44;98520.69;4994821;28;20056;-67
2021/11/25 10:09:40;;;;;;;38.17;20.05;;;;;;;5.93;69.32;98523.72;4994529;28;20111;-67
2021/11/25 10:12:26;;;;;;;34.75;18.90;;;;;;;6.01;70.00;98520.53;4994404;28;20045;-67
2021/11/25 10:15:38;;;;;;;43.72;21.23;;;;;;;5.95;69.83;98519.25;4995873;28;20057;-67
2021/11/25 10:18:22;;;;;;;36.38;18.85;;;;;;;5.92;68.90;98522.06;4994601;28;20049;-67
2021/11/25 10:21:12;;;;;;;36.38;19.85;;;;;;;5.92;69.10;98527.22;4994013;28;20102;-67
2021/11/25 10:23:56;;;;;;;34.25;19.58;;;;;;;5.89;69.33;98517.19;4995487;28;20503;-67
2021/11/25 10:26:40;;;;;;;36.20;20.55;;;;;;;5.93;68.75;98507.50;4980550;28;20049;-67
2021/11/25 10:29:24;;;;;;;37.63;20.23;;;;;;;6.03;68.56;98514.34;4994296;28;20184;-67
2021/11/25 10:32:14;;;;;;;35.65;19.13;;;;;;;6.01;69.20;98516.22;4980422;28;20132;-67
2021/11/25 10:35:23;;;;;;;36.03;21.33;;;;;;;6.07;68.64;98520.06;4993994;28;20068;-67
2021/11/25 10:40:51;;;;;;;35.42;19.75;;;;;;;5.96;68.42;98523.47;5016660;23;20419;-66
2021/11/25 10:43:35;;;;;;;35.60;20.30;;;;;;;5.86;68.48;98522.53;4994213;28;20053;-65
2021/11/25 10:46:36;;;;;;;34.95;20.42;;;;;;;5.97;68.41;98524.28;4993794;28;20076;-63
2021/11/25 10:49:32;;;;;;;36.75;20.33;;;;;;;5.86;68.58;98512.25;4994311;28;20124;-66
2021/11/25 10:52:30;;;;;;;38.25;20.00;;;;;;;5.94;68.97;98516.84;4994880;28;20049;-66
2021/11/25 10:55:14;;;;;;;32.78;19.27;;;;;;;5.77;68.60;98518.06;4994889;28;20171;-64
2021/11/25 10:58:02;;;;;;;33.88;18.45;;;;;;;5.82;68.02;98523.72;4994610;28;20197;-66
2021/11/25 11:00:46;;;;;;;34.60;18.63;;;;;;;5.86;67.73;98525.09;4993280;28;20049;-64
2021/11/25 11:03:31;;;;;;;34.90;20.33;;;;;;;5.98;67.71;98515.66;4966884;28;20357;-66
2021/11/25 11:06:29;;;;;;;36.10;19.40;;;;;;;5.85;67.86;98505.50;4993852;28;20061;-66
2021/11/25 11:09:35;;;;;;;35.38;19.20;;;;;;;5.88;67.34;98509.59;4993573;28;20076;-62
2021/11/25 11:20:51;;;;;;;38.35;19.70;;;;;;;5.86;67.60;98514.84;4993957;28;20069;-64
2021/11/25 11:23:35;;;;;;;43.45;20.45;;;;;;;5.80;68.63;98519.63;4993545;28;20044;-64
2021/11/25 11:26:19;;;;;;;41.58;21.38;;;;;;;5.91;68.60;98515.31;4993012;28;20116;-64
2021/11/25 11:29:03;;;;;;;40.47;20.25;;;;;;;5.82;68.19;98512.63;4993241;28;20100;-63
2021/11/25 11:31:48;;;;;;;41.88;21.23;;;;;;;5.76;67.64;98519.00;4993348;28;20053;-62
2021/11/25 11:34:33;;;;;;;40.30;20.77;;;;;;;5.78;67.79;98514.59;4993878;28;20558;-63
2021/11/25 11:37:18;;;;;;;45.47;20.70;;;;;;;5.75;67.77;98525.09;4992822;28;20518;-63
2021/11/25 11:40:04;;;;;;;38.53;20.58;;;;;;;5.66;67.40;98519.84;4992676;28;20053;-64
2021/11/25 11:42:49;;;;;;;37.63;21.38;;;;;;;5.82;67.76;98508.31;4993775;28;20121;-64
2021/11/25 11:45:37;;;;;;;45.00;24.13;;;;;;;5.61;69.32;98512.50;4993175;28;20558;-64
2021/11/25 11:48:23;;;;;;;43.75;23.73;;;;;;;5.60;69.55;98510.88;4993617;28;20515;-62
2021/11/25 11:51:13;;;;;;;45.83;23.88;;;;;;;5.60;69.87;98504.91;4993588;28;20585;-64
2021/11/25 11:53:57;;;;;;;41.20;23.13;;;;;;;5.61;69.48;98507.34;4992815;28;20125;-62
2021/11/25 11:56:44;;;;;;;49.08;25.25;;;;;;;5.58;70.17;98497.34;4993712;28;20054;-61
2021/11/25 11:59:38;;;;;;;42.45;23.17;;;;;;;5.56;70.09;98499.16;4992193;28;20108;-62
2021/11/25 12:02:43;;;;;;;43.00;22.70;;;;;;;5.53;70.31;98494.28;4992640;28;20221;-64
2021/11/25 12:05:39;;;;;;;45.70;24.27;;;;;;;5.73;70.19;98488.44;4993649;28;20092;-64
2021/11/25 12:08:30;;;;;;;43.33;23.00;;;;;;;5.51;69.31;98480.75;4993613;28;20088;-63
2021/11/25 12:11:15;;;;;;;44.25;23.25;;;;;;;5.52;69.82;98489.28;4993189;28;20463;-64
2021/11/25 12:14:11;;;;;;;46.85;24.13;;;;;;;5.57;69.60;98484.59;4993447;28;20049;-64
2021/11/25 12:17:01;;;;;;;40.58;22.60;;;;;;;5.64;68.92;98490.91;4992298;28;20050;-62
2021/11/25 12:19:46;;;;;;;45.50;23.67;;;;;;;5.54;69.77;98492.53;4993434;28;20053;-64
2021/11/25 12:22:29;;;;;;;45.30;24.90;;;;;;;5.41;70.89;98481.56;4993476;28;20045;-61
2021/11/25 12:25:28;;;;;;;47.35;24.02;;;;;;;5.51;70.83;98479.91;4993351;28;20100;-64
2021/11/25 12:28:27;;;;;;;46.28;24.92;;;;;;;5.48;71.38;98481.00;4992234;28;20077;-64
2021/11/25 12:33:59;;;;;;;45.13;24.15;;;;;;;5.52;70.89;98461.03;4993531;28;20057;-64
2021/11/25 12:36:43;;;;;;;46.97;25.08;;;;;;;5.34;71.16;98463.25;4992029;28;20053;-62
2021/11/25 12:39:38;;;;;;;47.45;25.45;;;;;;;5.32;71.66;98462.53;4993012;28;20045;-63
2021/11/25 12:42:22;;;;;;;45.17;22.88;;;;;;;5.25;71.23;98463.13;4992487;28;20522;-62
2021/11/25 12:45:26;;;;;;;47.78;24.48;;;;;;;5.26;72.30;98457.91;4993202;28;20084;-63
2021/11/25 12:48:11;;;;;;;45.67;24.58;;;;;;;5.25;72.69;98458.78;4993147;28;20065;-64
2021/11/25 12:51:00;;;;;;;45.28;23.63;;;;;;;5.30;72.42;98456.72;4992935;28;20085;-64
2021/11/25 12:53:49;;;;;;;45.30;24.00;;;;;;;5.28;73.09;98462.88;4993698;28;20108;-64
2021/11/25 12:56:38;;;;;;;45.17;24.33;;;;;;;5.30;72.58;98458.44;4992907;28;20101;-65
2021/11/25 12:59:22;;;;;;;44.08;24.02;;;;;;;5.29;73.02;98455.09;4993044;28;20396;-64
2021/11/25 13:02:06;;;;;;;45.92;23.63;;;;;;;5.24;73.14;98458.94;4993199;28;20073;-62
2021/11/25 13:04:50;;;;;;;41.58;23.25;;;;;;;5.19;72.77;98449.00;4993337;28;20050;-64
2021/11/25 13:07:46;;;;;;;41.10;22.58;;;;;;;5.10;73.25;98452.28;4991874;28;20049;-64
2021/11/25 13:10:33;;;;;;;46.33;23.67;;;;;;;5.13;73.94;98449.47;4991773;28;20530;-63
2021/11/25 13:13:20;;;;;;;42.08;22.25;;;;;;;5.11;74.12;98459.03;4995522;28;20115;-64